sensor_id;sensor_type;location;lat;lon;timestamp;temperature;humidity
29547;DHT22;40782;47.264;11.330;2023-04-25T00:00:50;9.80;99.90
29547;DHT22;40782;47.264;11.330;2023-04-25T00:03:17;9.80;1.00
29547;DHT22;40782;47.264;11.330;2023-04-25T00:05:45;9.70;1.00
29547;DHT22;40782;47.264;11.330;2023-04-25T00:08:12;9.70;1.00
29547;DHT22;40782;47.264;11.330;2023-04-25T00:10:39;9.60;1.00
29547;DHT22;40782;47.264;11.330;2023-04-25T00:13:07;9.70;1.00
29547;DHT22;40782;47.264;11.330;2023-04-25T00:15:36;9.80;1.00
29547;DHT22;40782;47.264;11.330;2023-04-25T00:18:04;9.80;1.00
29547;DHT22;40782;47.264;11.330;2023-04-25T00:20:32;9.70;1.00
29547;DHT22;40782;47.264;11.330;2023-04-25T00:22:59;9.80;1.00
29547;DHT22;40782;47.264;11.330;2023-04-25T00:25:26;9.80;1.00
29547;DHT22;40782;47.264;11.330;2023-04-25T00:27:54;9.60;1.00
29547;DHT22;40782;47.264;11.330;2023-04-25T00:30:22;9.60;1.00
29547;DHT22;40782;47.264;11.330;2023-04-25T00:32:49;9.50;1.00
29547;DHT22;40782;47.264;11.330;2023-04-25T00:35:16;9.50;1.00
29547;DHT22;40782;47.264;11.330;2023-04-25T00:37:43;9.50;1.00
29547;DHT22;40782;47.264;11.330;2023-04-25T00:40:10;9.50;1.00
29547;DHT22;40782;47.264;11.330;2023-04-25T00:42:38;9.50;1.00
29547;DHT22;40782;47.264;11.330;2023-04-25T00:45:06;9.50;1.00
29547;DHT22;40782;47.264;11.330;2023-04-25T00:47:35;9.60;1.00
29547;DHT22;40782;47.264;11.330;2023-04-25T00:50:02;9.30;1.00
29547;DHT22;40782;47.264;11.330;2023-04-25T00:52:30;9.30;1.00
29547;DHT22;40782;47.264;11.330;2023-04-25T00:54:57;9.40;1.00
29547;DHT22;40782;47.264;11.330;2023-04-25T00:57:24;9.30;1.00
29547;DHT22;40782;47.264;11.330;2023-04-25T00:59:51;9.20;1.00
29547;DHT22;40782;47.264;11.330;2023-04-25T01:02:19;9.20;1.00
29547;DHT22;40782;47.264;11.330;2023-04-25T01:04:48;9.40;99.90
29547;DHT22;40782;47.264;11.330;2023-04-25T01:07:15;9.50;99.90
29547;DHT22;40782;47.264;11.330;2023-04-25T01:09:42;9.50;99.90
29547;DHT22;40782;47.264;11.330;2023-04-25T01:12:09;9.50;1.00
29547;DHT22;40782;47.264;11.330;2023-04-25T01:14:36;9.50;99.90
29547;DHT22;40782;47.264;11.330;2023-04-25T01:17:03;9.50;99.90
29547;DHT22;40782;47.264;11.330;2023-04-25T01:19:30;9.50;99.90
29547;DHT22;40782;47.264;11.330;2023-04-25T01:21:59;9.40;1.00
29547;DHT22;40782;47.264;11.330;2023-04-25T01:24:26;9.40;1.00
29547;DHT22;40782;47.264;11.330;2023-04-25T01:26:53;9.30;1.00
29547;DHT22;40782;47.264;11.330;2023-04-25T01:29:22;9.30;99.90
29547;DHT22;40782;47.264;11.330;2023-04-25T01:31:50;9.10;1.00
29547;DHT22;40782;47.264;11.330;2023-04-25T01:34:18;8.90;1.00
29547;DHT22;40782;47.264;11.330;2023-04-25T01:36:45;8.90;1.00
29547;DHT22;40782;47.264;11.330;2023-04-25T01:39:15;8.90;1.00
29547;DHT22;40782;47.264;11.330;2023-04-25T01:41:42;8.90;99.90
29547;DHT22;40782;47.264;11.330;2023-04-25T01:44:09;9.00;99.90
29547;DHT22;40782;47.264;11.330;2023-04-25T01:46:36;8.90;99.90
29547;DHT22;40782;47.264;11.330;2023-04-25T01:49:03;9.00;1.00
29547;DHT22;40782;47.264;11.330;2023-04-25T01:51:30;9.00;99.90
29547;DHT22;40782;47.264;11.330;2023-04-25T01:53:57;8.90;99.90
29547;DHT22;40782;47.264;11.330;2023-04-25T01:56:29;8.90;1.00
29547;DHT22;40782;47.264;11.330;2023-04-25T01:58:56;8.80;1.00
29547;DHT22;40782;47.264;11.330;2023-04-25T02:01:24;8.70;1.00
29547;DHT22;40782;47.264;11.330;2023-04-25T02:03:51;8.60;1.00
29547;DHT22;40782;47.264;11.330;2023-04-25T02:06:18;8.60;99.90
29547;DHT22;40782;47.264;11.330;2023-04-25T02:08:45;8.60;99.90
29547;DHT22;40782;47.264;11.330;2023-04-25T02:11:12;8.50;1.00
29547;DHT22;40782;47.264;11.330;2023-04-25T02:13:40;8.40;1.00
29547;DHT22;40782;47.264;11.330;2023-04-25T02:16:07;8.20;1.00
29547;DHT22;40782;47.264;11.330;2023-04-25T02:18:34;8.20;1.00
29547;DHT22;40782;47.264;11.330;2023-04-25T02:21:02;8.10;99.90
29547;DHT22;40782;47.264;11.330;2023-04-25T02:23:30;8.20;1.00
29547;DHT22;40782;47.264;11.330;2023-04-25T02:25:57;8.10;99.90
29547;DHT22;40782;47.264;11.330;2023-04-25T02:28:24;8.10;99.90
29547;DHT22;40782;47.264;11.330;2023-04-25T02:30:53;8.00;1.00
29547;DHT22;40782;47.264;11.330;2023-04-25T02:33:21;8.00;1.00
29547;DHT22;40782;47.264;11.330;2023-04-25T02:35:48;8.00;1.00
29547;DHT22;40782;47.264;11.330;2023-04-25T02:38:15;8.10;1.00
29547;DHT22;40782;47.264;11.330;2023-04-25T02:40:42;8.10;1.00
29547;DHT22;40782;47.264;11.330;2023-04-25T02:43:09;8.00;1.00
29547;DHT22;40782;47.264;11.330;2023-04-25T02:45:36;8.10;1.00
29547;DHT22;40782;47.264;11.330;2023-04-25T02:48:04;8.00;1.00
29547;DHT22;40782;47.264;11.330;2023-04-25T02:50:32;7.90;99.90
29547;DHT22;40782;47.264;11.330;2023-04-25T02:52:59;7.80;1.00
29547;DHT22;40782;47.264;11.330;2023-04-25T02:55:26;7.90;99.90
29547;DHT22;40782;47.264;11.330;2023-04-25T02:57:53;7.90;1.00
29547;DHT22;40782;47.264;11.330;2023-04-25T03:00:21;7.80;1.00
29547;DHT22;40782;47.264;11.330;2023-04-25T03:02:48;7.80;1.00
29547;DHT22;40782;47.264;11.330;2023-04-25T03:05:18;7.70;1.00
29547;DHT22;40782;47.264;11.330;2023-04-25T03:07:45;7.80;1.00
29547;DHT22;40782;47.264;11.330;2023-04-25T03:10:12;7.70;1.00
29547;DHT22;40782;47.264;11.330;2023-04-25T03:12:39;7.60;1.00
29547;DHT22;40782;47.264;11.330;2023-04-25T03:15:06;7.60;1.00
29547;DHT22;40782;47.264;11.330;2023-04-25T03:17:34;7.50;1.00
29547;DHT22;40782;47.264;11.330;2023-04-25T03:20:01;7.50;1.00
29547;DHT22;40782;47.264;11.330;2023-04-25T03:22:31;7.40;1.00
29547;DHT22;40782;47.264;11.330;2023-04-25T03:24:58;7.40;11.70
29547;DHT22;40782;47.264;11.330;2023-04-25T03:27:25;7.40;1.00
29547;DHT22;40782;47.264;11.330;2023-04-25T03:29:52;7.40;1.00
29547;DHT22;40782;47.264;11.330;2023-04-25T03:32:19;7.40;1.00
29547;DHT22;40782;47.264;11.330;2023-04-25T03:34:46;7.30;1.00
29547;DHT22;40782;47.264;11.330;2023-04-25T03:37:13;7.30;1.00
29547;DHT22;40782;47.264;11.330;2023-04-25T03:39:42;7.30;1.00
29547;DHT22;40782;47.264;11.330;2023-04-25T03:42:09;7.20;1.00
29547;DHT22;40782;47.264;11.330;2023-04-25T03:44:36;7.20;1.00
29547;DHT22;40782;47.264;11.330;2023-04-25T03:47:03;7.30;1.00
29547;DHT22;40782;47.264;11.330;2023-04-25T03:49:30;7.30;1.00
29547;DHT22;40782;47.264;11.330;2023-04-25T03:51:57;7.30;1.00
29547;DHT22;40782;47.264;11.330;2023-04-25T03:54:25;7.40;1.00
29547;DHT22;40782;47.264;11.330;2023-04-25T03:56:54;7.40;1.00
29547;DHT22;40782;47.264;11.330;2023-04-25T03:59:21;7.30;1.00
29547;DHT22;40782;47.264;11.330;2023-04-25T04:01:48;7.20;1.00
29547;DHT22;40782;47.264;11.330;2023-04-25T04:04:15;7.30;1.00
29547;DHT22;40782;47.264;11.330;2023-04-25T04:06:42;7.30;1.00
29547;DHT22;40782;47.264;11.330;2023-04-25T04:09:09;7.30;1.00
29547;DHT22;40782;47.264;11.330;2023-04-25T04:11:37;7.10;1.00
29547;DHT22;40782;47.264;11.330;2023-04-25T04:14:06;7.20;1.00
29547;DHT22;40782;47.264;11.330;2023-04-25T04:16:33;7.10;1.00
29547;DHT22;40782;47.264;11.330;2023-04-25T04:19:00;7.20;1.00
29547;DHT22;40782;47.264;11.330;2023-04-25T04:21:27;7.20;1.00
29547;DHT22;40782;47.264;11.330;2023-04-25T04:23:54;7.00;1.00
29547;DHT22;40782;47.264;11.330;2023-04-25T04:26:23;7.00;1.00
29547;DHT22;40782;47.264;11.330;2023-04-25T04:28:51;7.00;1.00
29547;DHT22;40782;47.264;11.330;2023-04-25T04:31:21;7.10;1.00
29547;DHT22;40782;47.264;11.330;2023-04-25T04:33:48;7.20;1.00
29547;DHT22;40782;47.264;11.330;2023-04-25T04:36:15;7.30;1.00
29547;DHT22;40782;47.264;11.330;2023-04-25T04:38:45;7.30;1.00
29547;DHT22;40782;47.264;11.330;2023-04-25T04:41:12;7.20;1.00
29547;DHT22;40782;47.264;11.330;2023-04-25T04:43:39;7.20;1.00
29547;DHT22;40782;47.264;11.330;2023-04-25T04:46:07;7.30;1.00
29547;DHT22;40782;47.264;11.330;2023-04-25T04:48:37;7.30;1.00
29547;DHT22;40782;47.264;11.330;2023-04-25T04:51:05;7.30;1.00
29547;DHT22;40782;47.264;11.330;2023-04-25T04:53:32;7.30;1.00
29547;DHT22;40782;47.264;11.330;2023-04-25T04:55:59;7.40;99.90
29547;DHT22;40782;47.264;11.330;2023-04-25T04:58:26;7.30;99.90
29547;DHT22;40782;47.264;11.330;2023-04-25T05:00:55;7.10;99.90
29547;DHT22;40782;47.264;11.330;2023-04-25T05:03:22;7.10;99.90
29547;DHT22;40782;47.264;11.330;2023-04-25T05:05:51;7.10;99.90
29547;DHT22;40782;47.264;11.330;2023-04-25T05:08:18;7.10;1.00
29547;DHT22;40782;47.264;11.330;2023-04-25T05:10:45;7.20;1.00
29547;DHT22;40782;47.264;11.330;2023-04-25T05:13:12;7.30;1.00
29547;DHT22;40782;47.264;11.330;2023-04-25T05:15:39;7.40;1.00
29547;DHT22;40782;47.264;11.330;2023-04-25T05:18:06;7.30;1.00
29547;DHT22;40782;47.264;11.330;2023-04-25T05:20:33;7.30;99.90
29547;DHT22;40782;47.264;11.330;2023-04-25T05:23:02;7.40;99.90
29547;DHT22;40782;47.264;11.330;2023-04-25T05:25:29;7.40;97.70
29547;DHT22;40782;47.264;11.330;2023-04-25T05:27:56;7.40;99.90
29547;DHT22;40782;47.264;11.330;2023-04-25T05:30:23;7.50;1.00
29547;DHT22;40782;47.264;11.330;2023-04-25T05:32:51;7.50;99.90
29547;DHT22;40782;47.264;11.330;2023-04-25T05:35:18;7.60;95.10
29547;DHT22;40782;47.264;11.330;2023-04-25T05:37:45;7.60;99.90
29547;DHT22;40782;47.264;11.330;2023-04-25T05:40:13;7.70;99.90
29547;DHT22;40782;47.264;11.330;2023-04-25T05:42:40;7.70;1.00
29547;DHT22;40782;47.264;11.330;2023-04-25T05:45:08;7.60;1.00
29547;DHT22;40782;47.264;11.330;2023-04-25T05:47:35;7.80;99.90
29547;DHT22;40782;47.264;11.330;2023-04-25T05:50:02;7.90;1.00
29547;DHT22;40782;47.264;11.330;2023-04-25T05:52:29;7.80;99.90
29547;DHT22;40782;47.264;11.330;2023-04-25T05:54:56;7.80;1.00
29547;DHT22;40782;47.264;11.330;2023-04-25T05:57:25;7.80;99.90
29547;DHT22;40782;47.264;11.330;2023-04-25T05:59:52;8.00;1.00
29547;DHT22;40782;47.264;11.330;2023-04-25T06:02:20;8.20;99.90
29547;DHT22;40782;47.264;11.330;2023-04-25T06:04:47;8.30;1.00
29547;DHT22;40782;47.264;11.330;2023-04-25T06:07:14;8.50;99.90
29547;DHT22;40782;47.264;11.330;2023-04-25T06:09:41;8.60;1.00
29547;DHT22;40782;47.264;11.330;2023-04-25T06:12:08;8.70;1.00
29547;DHT22;40782;47.264;11.330;2023-04-25T06:14:37;8.70;1.00
29547;DHT22;40782;47.264;11.330;2023-04-25T06:17:04;8.70;1.00
29547;DHT22;40782;47.264;11.330;2023-04-25T06:19:34;8.80;99.90
29547;DHT22;40782;47.264;11.330;2023-04-25T06:22:01;9.00;99.90
29547;DHT22;40782;47.264;11.330;2023-04-25T06:24:28;9.10;99.90
29547;DHT22;40782;47.264;11.330;2023-04-25T06:26:55;9.20;99.90
29547;DHT22;40782;47.264;11.330;2023-04-25T06:29:22;9.40;99.90
29547;DHT22;40782;47.264;11.330;2023-04-25T06:31:50;9.00;1.00
29547;DHT22;40782;47.264;11.330;2023-04-25T06:34:17;8.80;1.00
29547;DHT22;40782;47.264;11.330;2023-04-25T06:36:44;8.90;1.00
29547;DHT22;40782;47.264;11.330;2023-04-25T06:39:11;8.90;1.00
29547;DHT22;40782;47.264;11.330;2023-04-25T06:41:38;8.90;1.00
29547;DHT22;40782;47.264;11.330;2023-04-25T06:44:06;9.00;1.00
29547;DHT22;40782;47.264;11.330;2023-04-25T06:46:33;9.00;99.90
29547;DHT22;40782;47.264;11.330;2023-04-25T06:49:02;9.00;11.80
29547;DHT22;40782;47.264;11.330;2023-04-25T06:51:29;9.10;45.90
29547;DHT22;40782;47.264;11.330;2023-04-25T06:53:56;9.00;99.90
29547;DHT22;40782;47.264;11.330;2023-04-25T06:56:23;8.90;1.00
29547;DHT22;40782;47.264;11.330;2023-04-25T06:58:50;8.80;99.90
29547;DHT22;40782;47.264;11.330;2023-04-25T07:01:17;9.00;99.90
29547;DHT22;40782;47.264;11.330;2023-04-25T07:03:44;9.10;99.90
29547;DHT22;40782;47.264;11.330;2023-04-25T07:06:12;9.00;54.00
29547;DHT22;40782;47.264;11.330;2023-04-25T07:08:40;9.00;25.20
29547;DHT22;40782;47.264;11.330;2023-04-25T07:11:07;9.00;99.90
29547;DHT22;40782;47.264;11.330;2023-04-25T07:13:34;9.00;99.90
29547;DHT22;40782;47.264;11.330;2023-04-25T07:16:01;9.00;43.90
29547;DHT22;40782;47.264;11.330;2023-04-25T07:18:28;9.10;1.00
29547;DHT22;40782;47.264;11.330;2023-04-25T07:20:55;9.10;1.00
29547;DHT22;40782;47.264;11.330;2023-04-25T07:23:24;9.20;1.00
29547;DHT22;40782;47.264;11.330;2023-04-25T07:25:51;9.40;1.00
29547;DHT22;40782;47.264;11.330;2023-04-25T07:28:18;9.60;1.00
29547;DHT22;40782;47.264;11.330;2023-04-25T07:30:45;9.80;1.00
29547;DHT22;40782;47.264;11.330;2023-04-25T07:33:12;9.90;1.00
29547;DHT22;40782;47.264;11.330;2023-04-25T07:35:40;10.10;1.00
29547;DHT22;40782;47.264;11.330;2023-04-25T07:38:07;10.00;1.00
29547;DHT22;40782;47.264;11.330;2023-04-25T07:40:37;10.00;1.00
29547;DHT22;40782;47.264;11.330;2023-04-25T07:43:04;10.00;1.00
29547;DHT22;40782;47.264;11.330;2023-04-25T07:45:31;10.20;1.00
29547;DHT22;40782;47.264;11.330;2023-04-25T07:47:58;10.20;1.00
29547;DHT22;40782;47.264;11.330;2023-04-25T07:50:25;10.20;1.00
29547;DHT22;40782;47.264;11.330;2023-04-25T07:52:52;10.20;1.00
29547;DHT22;40782;47.264;11.330;2023-04-25T07:55:19;10.30;1.00
29547;DHT22;40782;47.264;11.330;2023-04-25T07:57:47;10.50;1.00
29547;DHT22;40782;47.264;11.330;2023-04-25T08:00:15;10.60;1.00
29547;DHT22;40782;47.264;11.330;2023-04-25T08:02:42;10.70;1.00
29547;DHT22;40782;47.264;11.330;2023-04-25T08:05:09;10.30;1.00
29547;DHT22;40782;47.264;11.330;2023-04-25T08:07:39;10.10;1.00
29547;DHT22;40782;47.264;11.330;2023-04-25T08:10:07;10.10;1.00
29547;DHT22;40782;47.264;11.330;2023-04-25T08:12:34;10.30;1.00
29547;DHT22;40782;47.264;11.330;2023-04-25T08:15:03;10.50;1.00
29547;DHT22;40782;47.264;11.330;2023-04-25T08:17:30;10.70;1.00
29547;DHT22;40782;47.264;11.330;2023-04-25T08:19:57;10.70;1.00
29547;DHT22;40782;47.264;11.330;2023-04-25T08:22:24;10.50;1.00
29547;DHT22;40782;47.264;11.330;2023-04-25T08:24:51;10.30;1.00
29547;DHT22;40782;47.264;11.330;2023-04-25T08:27:18;10.50;1.00
29547;DHT22;40782;47.264;11.330;2023-04-25T08:29:46;10.30;1.00
29547;DHT22;40782;47.264;11.330;2023-04-25T08:32:14;10.60;1.00
29547;DHT22;40782;47.264;11.330;2023-04-25T08:34:41;10.90;1.00
29547;DHT22;40782;47.264;11.330;2023-04-25T08:37:09;10.90;1.00
29547;DHT22;40782;47.264;11.330;2023-04-25T08:39:36;10.90;1.00
29547;DHT22;40782;47.264;11.330;2023-04-25T08:42:04;11.10;1.00
29547;DHT22;40782;47.264;11.330;2023-04-25T08:44:33;11.30;1.00
29547;DHT22;40782;47.264;11.330;2023-04-25T08:47:01;11.40;1.00
29547;DHT22;40782;47.264;11.330;2023-04-25T08:49:30;11.50;1.00
29547;DHT22;40782;47.264;11.330;2023-04-25T08:51:58;11.80;1.00
29547;DHT22;40782;47.264;11.330;2023-04-25T08:54:26;11.80;1.00
29547;DHT22;40782;47.264;11.330;2023-04-25T08:56:55;11.70;1.00
29547;DHT22;40782;47.264;11.330;2023-04-25T08:59:23;11.70;1.00
29547;DHT22;40782;47.264;11.330;2023-04-25T09:01:50;12.00;1.00
29547;DHT22;40782;47.264;11.330;2023-04-25T09:04:17;11.80;99.90
29547;DHT22;40782;47.264;11.330;2023-04-25T09:06:46;11.90;1.00
29547;DHT22;40782;47.264;11.330;2023-04-25T09:09:13;12.00;99.90
29547;DHT22;40782;47.264;11.330;2023-04-25T09:11:40;12.10;99.90
29547;DHT22;40782;47.264;11.330;2023-04-25T09:14:12;12.20;99.90
29547;DHT22;40782;47.264;11.330;2023-04-25T09:16:59;11.90;99.90
29547;DHT22;40782;47.264;11.330;2023-04-25T09:19:26;12.10;99.90
29547;DHT22;40782;47.264;11.330;2023-04-25T09:21:55;12.40;99.90
29547;DHT22;40782;47.264;11.330;2023-04-25T09:24:32;12.70;99.90
29547;DHT22;40782;47.264;11.330;2023-04-25T09:26:59;12.80;99.90
29547;DHT22;40782;47.264;11.330;2023-04-25T09:29:28;13.10;99.90
29547;DHT22;40782;47.264;11.330;2023-04-25T09:32:04;13.10;99.90
29547;DHT22;40782;47.264;11.330;2023-04-25T09:34:38;13.10;99.90
29547;DHT22;40782;47.264;11.330;2023-04-25T09:37:07;12.70;99.90
29547;DHT22;40782;47.264;11.330;2023-04-25T09:39:34;12.90;99.90
29547;DHT22;40782;47.264;11.330;2023-04-25T09:42:02;13.00;99.90
29547;DHT22;40782;47.264;11.330;2023-04-25T09:44:29;13.00;99.90
29547;DHT22;40782;47.264;11.330;2023-04-25T09:46:56;12.90;99.90
29547;DHT22;40782;47.264;11.330;2023-04-25T09:49:24;12.90;99.90
29547;DHT22;40782;47.264;11.330;2023-04-25T09:51:55;12.90;99.90
29547;DHT22;40782;47.264;11.330;2023-04-25T09:54:24;13.10;99.90
29547;DHT22;40782;47.264;11.330;2023-04-25T09:56:52;13.20;99.90
29547;DHT22;40782;47.264;11.330;2023-04-25T09:59:19;13.20;99.90
29547;DHT22;40782;47.264;11.330;2023-04-25T10:01:47;13.20;99.90
29547;DHT22;40782;47.264;11.330;2023-04-25T10:04:16;13.20;99.90
29547;DHT22;40782;47.264;11.330;2023-04-25T10:06:45;12.90;99.90
29547;DHT22;40782;47.264;11.330;2023-04-25T10:09:14;13.10;99.90
29547;DHT22;40782;47.264;11.330;2023-04-25T10:11:44;13.40;99.90
29547;DHT22;40782;47.264;11.330;2023-04-25T10:14:13;13.60;99.90
29547;DHT22;40782;47.264;11.330;2023-04-25T10:16:41;13.90;99.90
29547;DHT22;40782;47.264;11.330;2023-04-25T10:19:08;14.50;99.90
29547;DHT22;40782;47.264;11.330;2023-04-25T10:21:36;14.60;99.90
29547;DHT22;40782;47.264;11.330;2023-04-25T10:24:03;15.10;99.90
29547;DHT22;40782;47.264;11.330;2023-04-25T10:26:31;15.50;99.90
29547;DHT22;40782;47.264;11.330;2023-04-25T10:29:00;15.90;99.90
29547;DHT22;40782;47.264;11.330;2023-04-25T10:31:28;15.80;99.90
29547;DHT22;40782;47.264;11.330;2023-04-25T10:33:56;15.80;99.90
29547;DHT22;40782;47.264;11.330;2023-04-25T10:36:23;15.90;99.90
29547;DHT22;40782;47.264;11.330;2023-04-25T10:38:52;15.80;99.90
29547;DHT22;40782;47.264;11.330;2023-04-25T10:41:28;16.00;99.90
29547;DHT22;40782;47.264;11.330;2023-04-25T10:43:59;16.60;99.90
29547;DHT22;40782;47.264;11.330;2023-04-25T10:46:27;17.00;99.90
29547;DHT22;40782;47.264;11.330;2023-04-25T10:48:55;16.90;99.90
29547;DHT22;40782;47.264;11.330;2023-04-25T10:51:23;16.70;99.90
29547;DHT22;40782;47.264;11.330;2023-04-25T10:56:41;16.90;99.90
29547;DHT22;40782;47.264;11.330;2023-04-25T10:59:11;16.90;99.90
29547;DHT22;40782;47.264;11.330;2023-04-25T11:01:39;16.80;99.90
29547;DHT22;40782;47.264;11.330;2023-04-25T11:04:06;16.40;99.90
29547;DHT22;40782;47.264;11.330;2023-04-25T11:06:46;16.10;99.90
29547;DHT22;40782;47.264;11.330;2023-04-25T11:09:17;16.20;99.90
29547;DHT22;40782;47.264;11.330;2023-04-25T11:11:53;16.50;99.90
29547;DHT22;40782;47.264;11.330;2023-04-25T11:14:21;16.20;99.90
29547;DHT22;40782;47.264;11.330;2023-04-25T11:16:52;16.40;99.90
29547;DHT22;40782;47.264;11.330;2023-04-25T11:19:19;16.60;99.90
29547;DHT22;40782;47.264;11.330;2023-04-25T11:21:46;17.10;99.90
29547;DHT22;40782;47.264;11.330;2023-04-25T11:24:13;17.60;99.90
29547;DHT22;40782;47.264;11.330;2023-04-25T11:26:41;17.80;99.90
29547;DHT22;40782;47.264;11.330;2023-04-25T11:29:09;17.80;99.90
29547;DHT22;40782;47.264;11.330;2023-04-25T11:31:37;17.30;99.90
29547;DHT22;40782;47.264;11.330;2023-04-25T11:34:04;16.80;99.90
29547;DHT22;40782;47.264;11.330;2023-04-25T11:36:31;16.10;99.90
29547;DHT22;40782;47.264;11.330;2023-04-25T11:38:58;15.70;99.90
29547;DHT22;40782;47.264;11.330;2023-04-25T11:41:25;15.40;99.90
29547;DHT22;40782;47.264;11.330;2023-04-25T11:43:52;15.40;99.90
29547;DHT22;40782;47.264;11.330;2023-04-25T11:46:21;15.40;99.90
29547;DHT22;40782;47.264;11.330;2023-04-25T11:48:48;15.90;99.90
29547;DHT22;40782;47.264;11.330;2023-04-25T11:51:15;16.60;99.90
29547;DHT22;40782;47.264;11.330;2023-04-25T11:53:44;16.90;99.90
29547;DHT22;40782;47.264;11.330;2023-04-25T11:56:11;17.50;99.90
29547;DHT22;40782;47.264;11.330;2023-04-25T12:01:26;17.20;99.90
29547;DHT22;40782;47.264;11.330;2023-04-25T12:03:53;17.00;99.90
29547;DHT22;40782;47.264;11.330;2023-04-25T12:06:20;17.00;99.90
29547;DHT22;40782;47.264;11.330;2023-04-25T12:09:00;17.20;99.90
29547;DHT22;40782;47.264;11.330;2023-04-25T12:11:27;17.70;99.90
29547;DHT22;40782;47.264;11.330;2023-04-25T12:13:56;17.30;99.90
29547;DHT22;40782;47.264;11.330;2023-04-25T12:16:24;17.10;99.90
29547;DHT22;40782;47.264;11.330;2023-04-25T12:18:52;17.50;99.90
29547;DHT22;40782;47.264;11.330;2023-04-25T12:21:20;18.20;99.90
29547;DHT22;40782;47.264;11.330;2023-04-25T12:23:47;18.60;99.90
29547;DHT22;40782;47.264;11.330;2023-04-25T12:26:14;18.90;99.90
29547;DHT22;40782;47.264;11.330;2023-04-25T12:28:44;19.40;99.90
29547;DHT22;40782;47.264;11.330;2023-04-25T12:31:12;19.60;99.90
29547;DHT22;40782;47.264;11.330;2023-04-25T12:33:40;20.40;99.90
29547;DHT22;40782;47.264;11.330;2023-04-25T12:36:09;20.20;99.90
29547;DHT22;40782;47.264;11.330;2023-04-25T12:38:38;20.50;99.90
29547;DHT22;40782;47.264;11.330;2023-04-25T12:41:06;20.70;99.90
29547;DHT22;40782;47.264;11.330;2023-04-25T12:43:33;21.40;99.90
29547;DHT22;40782;47.264;11.330;2023-04-25T12:46:00;21.60;99.90
29547;DHT22;40782;47.264;11.330;2023-04-25T12:48:27;21.70;99.90
29547;DHT22;40782;47.264;11.330;2023-04-25T12:50:54;22.10;99.90
29547;DHT22;40782;47.264;11.330;2023-04-25T12:53:23;22.60;99.90
29547;DHT22;40782;47.264;11.330;2023-04-25T12:55:50;23.00;99.90
29547;DHT22;40782;47.264;11.330;2023-04-25T12:58:18;23.00;99.90
29547;DHT22;40782;47.264;11.330;2023-04-25T13:00:45;22.90;99.90
29547;DHT22;40782;47.264;11.330;2023-04-25T13:03:13;23.00;99.90
29547;DHT22;40782;47.264;11.330;2023-04-25T13:05:40;22.70;99.90
29547;DHT22;40782;47.264;11.330;2023-04-25T13:08:07;22.30;99.90
29547;DHT22;40782;47.264;11.330;2023-04-25T13:10:35;21.70;99.90
29547;DHT22;40782;47.264;11.330;2023-04-25T13:13:04;20.90;99.90
29547;DHT22;40782;47.264;11.330;2023-04-25T13:15:31;20.70;99.90
29547;DHT22;40782;47.264;11.330;2023-04-25T13:17:58;19.50;99.90
29547;DHT22;40782;47.264;11.330;2023-04-25T13:20:26;18.40;99.90
29547;DHT22;40782;47.264;11.330;2023-04-25T13:22:53;17.40;99.90
29547;DHT22;40782;47.264;11.330;2023-04-25T13:25:20;16.20;99.90
29547;DHT22;40782;47.264;11.330;2023-04-25T13:27:49;16.00;99.90
29547;DHT22;40782;47.264;11.330;2023-04-25T13:30:16;16.10;99.90
29547;DHT22;40782;47.264;11.330;2023-04-25T13:32:43;15.80;99.90
29547;DHT22;40782;47.264;11.330;2023-04-25T13:35:11;15.90;99.90
29547;DHT22;40782;47.264;11.330;2023-04-25T13:37:39;16.30;99.90
29547;DHT22;40782;47.264;11.330;2023-04-25T13:40:07;17.10;99.90
29547;DHT22;40782;47.264;11.330;2023-04-25T13:42:35;17.70;99.90
29547;DHT22;40782;47.264;11.330;2023-04-25T13:45:04;17.50;99.90
29547;DHT22;40782;47.264;11.330;2023-04-25T13:47:31;16.80;99.90
29547;DHT22;40782;47.264;11.330;2023-04-25T13:49:58;17.00;99.90
29547;DHT22;40782;47.264;11.330;2023-04-25T13:52:26;17.20;99.90
29547;DHT22;40782;47.264;11.330;2023-04-25T13:54:53;17.50;99.90
29547;DHT22;40782;47.264;11.330;2023-04-25T13:57:20;17.50;99.90
29547;DHT22;40782;47.264;11.330;2023-04-25T13:59:47;17.50;99.90
29547;DHT22;40782;47.264;11.330;2023-04-25T14:02:16;17.10;99.90
29547;DHT22;40782;47.264;11.330;2023-04-25T14:04:43;17.10;99.90
29547;DHT22;40782;47.264;11.330;2023-04-25T14:07:10;16.80;99.90
29547;DHT22;40782;47.264;11.330;2023-04-25T14:09:37;16.00;99.90
29547;DHT22;40782;47.264;11.330;2023-04-25T14:12:04;15.80;99.90
29547;DHT22;40782;47.264;11.330;2023-04-25T14:14:31;15.20;99.90
29547;DHT22;40782;47.264;11.330;2023-04-25T14:16:58;14.80;99.90
29547;DHT22;40782;47.264;11.330;2023-04-25T14:19:27;14.30;99.90
29547;DHT22;40782;47.264;11.330;2023-04-25T14:21:54;14.10;99.90
29547;DHT22;40782;47.264;11.330;2023-04-25T14:24:21;13.80;99.90
29547;DHT22;40782;47.264;11.330;2023-04-25T14:26:48;14.00;99.90
29547;DHT22;40782;47.264;11.330;2023-04-25T14:29:16;14.20;99.90
29547;DHT22;40782;47.264;11.330;2023-04-25T14:31:43;14.20;99.90
29547;DHT22;40782;47.264;11.330;2023-04-25T14:34:10;14.30;99.90
29547;DHT22;40782;47.264;11.330;2023-04-25T14:36:38;15.00;99.90
29547;DHT22;40782;47.264;11.330;2023-04-25T14:39:05;15.30;99.90
29547;DHT22;40782;47.264;11.330;2023-04-25T14:41:33;15.40;99.90
29547;DHT22;40782;47.264;11.330;2023-04-25T14:44:00;15.80;99.90
29547;DHT22;40782;47.264;11.330;2023-04-25T14:46:27;15.90;99.90
29547;DHT22;40782;47.264;11.330;2023-04-25T14:48:54;15.50;99.90
29547;DHT22;40782;47.264;11.330;2023-04-25T14:51:21;15.30;99.90
29547;DHT22;40782;47.264;11.330;2023-04-25T14:53:50;15.00;99.90
29547;DHT22;40782;47.264;11.330;2023-04-25T14:56:17;14.80;99.90
29547;DHT22;40782;47.264;11.330;2023-04-25T14:58:44;14.50;99.90
29547;DHT22;40782;47.264;11.330;2023-04-25T15:01:11;14.70;99.90
29547;DHT22;40782;47.264;11.330;2023-04-25T15:03:39;14.90;99.90
29547;DHT22;40782;47.264;11.330;2023-04-25T15:06:06;15.10;99.90
29547;DHT22;40782;47.264;11.330;2023-04-25T15:08:33;14.40;99.90
29547;DHT22;40782;47.264;11.330;2023-04-25T15:11:02;14.40;99.90
29547;DHT22;40782;47.264;11.330;2023-04-25T15:13:30;14.20;99.90
29547;DHT22;40782;47.264;11.330;2023-04-25T15:15:57;14.00;99.90
29547;DHT22;40782;47.264;11.330;2023-04-25T15:18:25;13.80;99.90
29547;DHT22;40782;47.264;11.330;2023-04-25T15:20:52;13.40;99.90
29547;DHT22;40782;47.264;11.330;2023-04-25T15:23:20;13.20;99.90
29547;DHT22;40782;47.264;11.330;2023-04-25T15:25:47;13.00;99.90
29547;DHT22;40782;47.264;11.330;2023-04-25T15:28:15;12.90;99.90
29547;DHT22;40782;47.264;11.330;2023-04-25T15:30:43;12.70;99.90
29547;DHT22;40782;47.264;11.330;2023-04-25T15:33:10;12.70;99.90
29547;DHT22;40782;47.264;11.330;2023-04-25T15:35:38;12.50;99.90
29547;DHT22;40782;47.264;11.330;2023-04-25T15:38:05;12.40;99.90